createdAt,value
2023-05-03T00:01:49.695Z,13.00
2023-05-03T00:04:19.056Z,12.88
2023-05-03T00:06:55.481Z,12.82
2023-05-03T00:09:25.260Z,12.62
2023-05-03T00:11:57.651Z,12.60
2023-05-03T00:14:27.516Z,12.57
2023-05-03T00:16:57.969Z,12.52
2023-05-03T00:19:31.754Z,12.55
2023-05-03T00:21:59.582Z,12.51
2023-05-03T00:24:30.327Z,12.48
2023-05-03T00:26:57.295Z,12.41
2023-05-03T00:29:24.358Z,12.38
2023-05-03T00:31:52.840Z,12.33
2023-05-03T00:34:22.574Z,12.40
2023-05-03T00:36:53.228Z,12.29
2023-05-03T00:39:25.011Z,12.23
2023-05-03T00:41:57.310Z,12.25
2023-05-03T00:44:24.860Z,12.23
2023-05-03T00:46:55.689Z,12.35
2023-05-03T00:49:33.037Z,12.35
2023-05-03T00:52:02.225Z,12.33
2023-05-03T00:54:35.319Z,12.40
2023-05-03T00:57:02.847Z,12.38
2023-05-03T00:59:30.142Z,12.41
2023-05-03T01:02:03.173Z,12.31
2023-05-03T01:04:30.796Z,12.33
2023-05-03T01:06:57.537Z,12.34
2023-05-03T01:09:39.748Z,12.34
2023-05-03T01:12:12.590Z,12.30
2023-05-03T01:14:48.411Z,12.04
2023-05-03T01:17:15.672Z,12.07
2023-05-03T01:19:49.191Z,12.04
2023-05-03T01:22:26.070Z,12.07
2023-05-03T01:25:08.045Z,11.94
2023-05-03T01:27:38.692Z,12.08
2023-05-03T01:30:08.653Z,11.93
2023-05-03T01:32:50.777Z,11.88
2023-05-03T01:35:30.522Z,11.79
2023-05-03T01:37:57.773Z,11.78
2023-05-03T01:40:25.570Z,11.94
2023-05-03T01:42:57.749Z,11.74
2023-05-03T01:45:30.831Z,11.75
2023-05-03T01:48:00.243Z,11.46
2023-05-03T01:50:40.629Z,11.62
2023-05-03T01:53:07.475Z,11.68
2023-05-03T01:55:34.262Z,11.59
2023-05-03T01:58:01.174Z,11.66
2023-05-03T02:00:30.834Z,11.59
2023-05-03T02:02:58.373Z,11.73
2023-05-03T02:05:27.784Z,11.84
2023-05-03T02:07:54.908Z,11.80
2023-05-03T02:10:24.073Z,12.00
2023-05-03T02:12:51.221Z,11.99
2023-05-03T02:15:20.366Z,11.82
2023-05-03T02:17:51.212Z,11.78
2023-05-03T02:20:27.424Z,11.70
2023-05-03T02:22:54.323Z,11.55
2023-05-03T02:25:21.411Z,11.65
2023-05-03T02:27:48.430Z,11.62
2023-05-03T02:30:17.977Z,11.66
2023-05-03T02:32:44.926Z,11.73
2023-05-03T02:35:18.710Z,11.63
2023-05-03T02:37:45.972Z,11.65
2023-05-03T02:40:16.146Z,11.60
2023-05-03T02:42:45.290Z,11.67
2023-05-03T02:45:16.394Z,11.64
2023-05-03T02:47:45.766Z,11.55
2023-05-03T02:50:17.021Z,11.49
2023-05-03T02:52:46.552Z,11.61
2023-05-03T02:55:13.521Z,11.64
2023-05-03T02:57:42.763Z,11.72
2023-05-03T03:00:15.248Z,11.76
2023-05-03T03:02:42.999Z,11.52
2023-05-03T03:05:11.201Z,11.52
2023-05-03T03:07:40.374Z,11.48
2023-05-03T03:10:11.023Z,11.67
2023-05-03T03:12:41.185Z,11.71
2023-05-03T03:15:14.903Z,11.58
2023-05-03T03:17:48.157Z,11.56
2023-05-03T03:20:19.374Z,11.64
2023-05-03T03:23:03.872Z,11.54
2023-05-03T03:25:39.761Z,11.48
2023-05-03T03:28:06.936Z,11.52
2023-05-03T03:30:35.311Z,11.54
2023-05-03T03:33:12.882Z,11.66
2023-05-03T03:35:41.967Z,11.69
2023-05-03T03:38:10.002Z,11.81
2023-05-03T03:40:44.496Z,11.89
2023-05-03T03:43:12.029Z,11.79
2023-05-03T03:45:39.997Z,11.72
2023-05-03T03:48:07.669Z,11.72
2023-05-03T03:50:34.588Z,11.60
2023-05-03T03:53:01.828Z,11.79
2023-05-03T03:55:31.371Z,11.75
2023-05-03T03:58:05.914Z,11.69
2023-05-03T04:00:36.498Z,11.68
2023-05-03T04:03:09.936Z,11.60
2023-05-03T04:05:36.826Z,11.62
2023-05-03T04:08:04.203Z,11.62
2023-05-03T04:10:33.390Z,11.59
2023-05-03T04:13:00.558Z,11.54
2023-05-03T04:15:28.110Z,11.48
2023-05-03T04:17:58.113Z,11.49
2023-05-03T04:20:25.533Z,11.58
2023-05-03T04:22:53.327Z,11.63
2023-05-03T04:25:23.945Z,11.50
2023-05-03T04:27:56.957Z,11.42
2023-05-03T04:30:25.807Z,11.49
2023-05-03T04:32:55.340Z,11.36
2023-05-03T04:35:23.617Z,11.25
2023-05-03T04:37:50.617Z,11.39
2023-05-03T04:40:21.330Z,11.29
2023-05-03T04:42:57.454Z,11.23
2023-05-03T04:45:24.779Z,11.22
2023-05-03T04:47:51.808Z,11.24
2023-05-03T04:50:18.711Z,11.23
2023-05-03T04:52:49.280Z,11.20
2023-05-03T04:55:17.098Z,11.05
2023-05-03T04:57:44.753Z,11.19
2023-05-03T05:00:13.884Z,11.19
2023-05-03T05:02:45.617Z,11.17
2023-05-03T05:05:13.704Z,11.29
2023-05-03T05:07:40.729Z,11.29
2023-05-03T05:10:10.783Z,11.24
2023-05-03T05:12:37.530Z,11.37
2023-05-03T05:15:06.518Z,11.35
2023-05-03T05:17:33.870Z,11.38
2023-05-03T05:20:02.729Z,11.43
2023-05-03T05:22:30.408Z,11.41
2023-05-03T05:24:59.787Z,11.46
2023-05-03T05:27:27.903Z,11.47
2023-05-03T05:29:56.631Z,11.44
2023-05-03T05:32:23.725Z,11.52
2023-05-03T05:34:55.415Z,11.59
2023-05-03T05:37:25.368Z,11.65
2023-05-03T05:39:53.569Z,11.57
2023-05-03T05:42:22.847Z,11.59
2023-05-03T05:44:52.369Z,11.69
2023-05-03T05:47:21.506Z,11.86
2023-05-03T05:49:50.979Z,11.91
2023-05-03T05:52:17.939Z,11.98
2023-05-03T05:54:44.786Z,11.79
2023-05-03T05:57:13.471Z,11.66
2023-05-03T05:59:40.877Z,11.77
2023-05-03T06:02:14.746Z,11.76
2023-05-03T06:04:41.848Z,11.79
2023-05-03T06:07:08.946Z,11.84
2023-05-03T06:09:35.791Z,11.73
2023-05-03T06:12:04.203Z,11.81
2023-05-03T06:14:33.384Z,11.85
2023-05-03T06:17:00.559Z,11.68
2023-05-03T06:19:27.299Z,11.69
2023-05-03T06:21:53.981Z,11.55
2023-05-03T06:24:21.787Z,11.74
2023-05-03T06:26:51.412Z,11.73
2023-05-03T06:29:18.222Z,11.76
2023-05-03T06:31:45.418Z,11.83
2023-05-03T06:34:13.179Z,11.77
2023-05-03T06:36:41.856Z,11.87
2023-05-03T06:39:09.496Z,11.78
2023-05-03T06:41:36.198Z,11.77
2023-05-03T06:44:04.326Z,11.78
2023-05-03T06:46:31.373Z,11.88
2023-05-03T06:48:58.183Z,11.88
2023-05-03T06:51:28.522Z,11.85
2023-05-03T06:53:58.269Z,11.85
2023-05-03T06:56:25.285Z,11.83
2023-05-03T06:58:51.943Z,11.65
2023-05-03T07:01:20.517Z,11.67
2023-05-03T07:03:47.444Z,11.81
2023-05-03T07:06:15.378Z,11.80
2023-05-03T07:08:42.528Z,11.78
2023-05-03T07:11:09.966Z,11.82
2023-05-03T07:13:36.683Z,11.90
2023-05-03T07:16:03.721Z,11.93
2023-05-03T07:18:30.641Z,11.93
2023-05-03T07:20:57.372Z,12.01
2023-05-03T07:23:25.520Z,11.94
2023-05-03T07:25:53.948Z,11.92
2023-05-03T07:28:20.604Z,12.05
2023-05-03T07:30:47.375Z,12.11
2023-05-03T07:33:14.910Z,12.15
2023-05-03T07:35:43.276Z,12.09
2023-05-03T07:38:09.974Z,12.15
2023-05-03T07:40:37.026Z,12.23
2023-05-03T07:43:03.819Z,12.25
2023-05-03T07:45:30.800Z,12.22
2023-05-03T07:47:57.702Z,12.26
2023-05-03T07:50:24.965Z,12.34
2023-05-03T07:52:51.812Z,12.40
2023-05-03T07:55:20.028Z,12.32
2023-05-03T07:57:46.710Z,12.37
2023-05-03T08:00:14.043Z,12.41
2023-05-03T08:02:41.081Z,12.43
2023-05-03T08:05:09.702Z,12.43
2023-05-03T08:07:36.705Z,12.57
2023-05-03T08:10:03.552Z,12.55
2023-05-03T08:12:30.590Z,12.62
2023-05-03T08:14:57.283Z,12.68
2023-05-03T08:17:24.050Z,12.60
2023-05-03T08:19:50.695Z,12.69
2023-05-03T08:22:17.364Z,12.77
2023-05-03T08:24:44.203Z,12.79
2023-05-03T08:27:12.549Z,12.79
2023-05-03T08:29:39.238Z,12.84
2023-05-03T08:32:05.975Z,12.81
2023-05-03T08:34:32.873Z,12.88
2023-05-03T08:36:59.618Z,12.81
2023-05-03T08:39:27.124Z,12.95
2023-05-03T08:41:54.198Z,12.80
2023-05-03T08:44:25.894Z,12.79
2023-05-03T08:46:52.725Z,12.96
2023-05-03T08:49:19.544Z,12.91
2023-05-03T08:51:48.432Z,12.88
2023-05-03T08:54:20.657Z,12.93
2023-05-03T08:56:47.570Z,12.97
2023-05-03T08:59:17.024Z,12.99
2023-05-03T09:01:43.767Z,13.06
2023-05-03T09:04:11.526Z,13.13
2023-05-03T09:06:38.986Z,13.13
2023-05-03T09:09:07.851Z,13.15
2023-05-03T09:11:36.137Z,13.21
2023-05-03T09:14:18.738Z,13.25
2023-05-03T09:16:46.738Z,13.27
2023-05-03T09:19:14.956Z,13.31
2023-05-03T09:21:48.952Z,13.34
2023-05-03T09:24:20.917Z,13.40
2023-05-03T09:26:49.646Z,13.50
2023-05-03T09:29:34.453Z,13.37
2023-05-03T09:32:03.019Z,13.48
2023-05-03T09:34:29.757Z,13.49
2023-05-03T09:36:56.627Z,13.61
2023-05-03T09:39:23.303Z,13.68
2023-05-03T09:41:50.042Z,13.61
2023-05-03T09:44:19.401Z,13.64
2023-05-03T09:47:06.706Z,13.57
2023-05-03T09:49:33.935Z,13.68
2023-05-03T09:52:04.296Z,13.65
2023-05-03T09:54:31.469Z,13.76
2023-05-03T09:56:59.008Z,13.79
2023-05-03T09:59:26.125Z,13.81
2023-05-03T10:01:56.598Z,13.77
2023-05-03T10:04:25.797Z,13.82
2023-05-03T10:06:54.210Z,13.76
2023-05-03T10:09:32.466Z,13.71
2023-05-03T10:12:01.848Z,13.77
2023-05-03T10:14:28.637Z,13.80
2023-05-03T10:17:01.474Z,13.77
2023-05-03T10:19:47.865Z,13.81
2023-05-03T10:22:14.621Z,13.92
2023-05-03T10:25:02.712Z,13.86
2023-05-03T10:28:04.155Z,13.97
2023-05-03T10:30:33.494Z,14.02
2023-05-03T10:33:20.158Z,14.03
2023-05-03T10:35:54.133Z,14.10
2023-05-03T10:38:23.791Z,14.10
2023-05-03T10:40:50.955Z,14.14
2023-05-03T10:43:40.813Z,14.15
2023-05-03T10:46:12.110Z,14.23
2023-05-03T10:48:38.864Z,14.29
2023-05-03T10:51:32.953Z,14.32
2023-05-03T10:53:59.843Z,14.46
2023-05-03T10:56:26.581Z,14.57
2023-05-03T10:58:56.550Z,14.57
2023-05-03T11:01:24.595Z,14.56
2023-05-03T11:04:23.030Z,14.44
2023-05-03T11:06:52.042Z,14.50
2023-05-03T11:09:18.914Z,14.56
2023-05-03T11:11:46.092Z,14.62
2023-05-03T11:14:13.966Z,14.74
2023-05-03T11:16:48.027Z,14.79
2023-05-03T11:19:15.508Z,14.82
2023-05-03T11:21:42.793Z,14.89
2023-05-03T11:24:09.947Z,14.92
2023-05-03T11:26:37.805Z,14.96
2023-05-03T11:29:05.260Z,15.03
2023-05-03T11:31:33.011Z,15.05
2023-05-03T11:33:59.807Z,15.05
2023-05-03T11:36:28.030Z,14.94
2023-05-03T11:38:54.911Z,14.94
2023-05-03T11:41:21.680Z,14.96
2023-05-03T11:43:57.568Z,14.94
2023-05-03T11:46:33.996Z,15.01
2023-05-03T11:49:02.041Z,15.04
2023-05-03T11:51:29.193Z,15.01
2023-05-03T11:53:55.914Z,14.97
2023-05-03T11:56:22.908Z,15.01
2023-05-03T11:58:56.185Z,15.06
2023-05-03T12:01:25.183Z,15.08
2023-05-03T12:03:57.615Z,15.01
2023-05-03T12:06:24.772Z,15.00
2023-05-03T12:08:52.947Z,15.04
2023-05-03T12:11:21.624Z,15.09
2023-05-03T12:13:59.897Z,15.10
2023-05-03T12:16:27.581Z,15.20
2023-05-03T12:19:03.091Z,15.24
2023-05-03T12:21:59.155Z,15.22
2023-05-03T12:24:35.018Z,15.39
2023-05-03T12:27:03.247Z,15.40
2023-05-03T12:29:34.692Z,15.46
2023-05-03T12:32:03.497Z,15.48
2023-05-03T12:34:35.055Z,15.53
2023-05-03T12:37:05.592Z,15.44
2023-05-03T12:39:34.199Z,15.43
2023-05-03T12:44:35.033Z,15.40
2023-05-03T12:47:02.936Z,15.48
2023-05-03T12:49:30.299Z,15.48
2023-05-03T12:52:22.176Z,15.49
2023-05-03T12:54:49.272Z,15.54
2023-05-03T12:57:22.094Z,15.54
2023-05-03T12:59:55.918Z,15.56
2023-05-03T13:05:00.786Z,15.55
2023-05-03T13:07:30.941Z,15.61
2023-05-03T13:12:28.493Z,15.64
2023-05-03T13:14:55.723Z,15.64
2023-05-03T13:17:23.007Z,15.74
2023-05-03T13:19:51.449Z,15.72
2023-05-03T13:22:18.305Z,15.73
2023-05-03T13:24:46.711Z,15.78
2023-05-03T13:27:13.768Z,15.81
2023-05-03T13:29:40.818Z,15.82
2023-05-03T13:32:08.638Z,15.84
2023-05-03T13:34:36.256Z,15.83
2023-05-03T13:37:04.420Z,15.91
2023-05-03T13:39:32.361Z,15.93
2023-05-03T13:42:04.683Z,15.93
2023-05-03T13:44:35.530Z,15.98
2023-05-03T13:47:02.555Z,16.03
2023-05-03T13:49:29.504Z,15.97
2023-05-03T13:51:56.256Z,15.99
2023-05-03T13:54:23.125Z,15.99
2023-05-03T13:56:49.846Z,16.03
2023-05-03T13:59:16.786Z,16.05
2023-05-03T14:01:43.660Z,16.11
2023-05-03T14:04:10.699Z,16.13
2023-05-03T14:06:40.374Z,16.12
2023-05-03T14:09:09.249Z,16.16
2023-05-03T14:11:36.040Z,16.21
2023-05-03T14:14:03.481Z,16.23
2023-05-03T14:16:40.850Z,16.25
2023-05-03T14:19:11.984Z,16.22
2023-05-03T14:21:42.371Z,16.23
2023-05-03T14:24:13.028Z,16.25
2023-05-03T14:26:43.080Z,16.26
2023-05-03T14:29:09.932Z,16.34
2023-05-03T14:31:39.178Z,16.41
2023-05-03T14:34:05.999Z,16.41
2023-05-03T14:36:36.183Z,16.41
2023-05-03T14:39:04.282Z,16.46
2023-05-03T14:41:33.071Z,16.51
2023-05-03T14:43:59.966Z,16.52
2023-05-03T14:46:26.620Z,16.57
2023-05-03T14:48:53.729Z,16.58
2023-05-03T14:51:23.728Z,16.53
2023-05-03T14:53:53.909Z,16.57
2023-05-03T14:56:22.150Z,16.59
2023-05-03T14:58:51.710Z,16.63
2023-05-03T15:01:21.619Z,16.65
2023-05-03T15:03:48.364Z,16.67
2023-05-03T15:06:15.410Z,16.66
2023-05-03T15:08:43.103Z,16.65
2023-05-03T15:11:10.490Z,16.66
2023-05-03T15:13:37.584Z,16.69
2023-05-03T15:16:04.534Z,16.69
2023-05-03T15:18:31.301Z,16.75
2023-05-03T15:20:58.110Z,16.77
2023-05-03T15:23:24.993Z,16.77
2023-05-03T15:25:51.811Z,16.79
2023-05-03T15:28:18.590Z,16.78
2023-05-03T15:30:48.444Z,16.78
2023-05-03T15:33:18.477Z,16.80
2023-05-03T15:35:48.288Z,16.75
2023-05-03T15:38:21.409Z,16.79
2023-05-03T15:40:54.388Z,16.74
2023-05-03T15:43:23.862Z,16.52
2023-05-03T15:45:50.768Z,16.65
2023-05-03T15:48:17.516Z,16.68
2023-05-03T15:50:44.628Z,16.66
2023-05-03T15:53:11.364Z,16.69
2023-05-03T15:55:41.704Z,16.67
2023-05-03T15:58:09.440Z,16.67
2023-05-03T16:00:39.007Z,16.68
2023-05-03T16:03:05.930Z,16.66
2023-05-03T16:05:32.925Z,16.65
2023-05-03T16:07:59.982Z,16.65
2023-05-03T16:10:26.758Z,16.62
2023-05-03T16:12:53.525Z,16.64
2023-05-03T16:15:20.376Z,16.64
2023-05-03T16:17:47.595Z,16.64
2023-05-03T16:20:15.158Z,16.71
2023-05-03T16:22:41.925Z,16.70
2023-05-03T16:25:14.682Z,16.68
2023-05-03T16:28:00.347Z,16.64
2023-05-03T16:30:27.532Z,16.67
2023-05-03T16:32:57.385Z,16.64
2023-05-03T16:35:33.866Z,16.63
2023-05-03T16:38:14.260Z,16.63
2023-05-03T16:40:53.181Z,16.64
2023-05-03T16:43:30.380Z,16.58
2023-05-03T16:46:01.004Z,16.64
2023-05-03T16:48:31.437Z,16.67
2023-05-03T16:50:58.775Z,16.68
2023-05-03T16:53:25.568Z,16.65
2023-05-03T16:55:52.982Z,16.67
2023-05-03T16:58:19.734Z,16.71
2023-05-03T17:00:46.827Z,16.70
2023-05-03T17:03:13.693Z,16.68
2023-05-03T17:05:40.493Z,16.68
2023-05-03T17:08:10.958Z,16.67
2023-05-03T17:10:41.609Z,16.68
2023-05-03T17:13:09.974Z,16.70
2023-05-03T17:15:39.052Z,16.69
2023-05-03T17:18:06.146Z,16.75
2023-05-03T17:20:36.635Z,16.69
2023-05-03T17:23:04.988Z,16.66
2023-05-03T17:25:31.758Z,16.69
2023-05-03T17:27:58.501Z,16.60
2023-05-03T17:30:25.248Z,16.57
2023-05-03T17:32:51.997Z,16.59
2023-05-03T17:35:18.788Z,16.60
2023-05-03T17:37:45.765Z,16.59
2023-05-03T17:40:12.751Z,16.62
2023-05-03T17:42:45.362Z,16.54
2023-05-03T17:45:21.475Z,16.55
2023-05-03T17:47:50.547Z,16.59
2023-05-03T17:50:18.362Z,16.55
2023-05-03T17:52:48.160Z,16.58
2023-05-03T17:55:15.676Z,16.55
2023-05-03T17:57:45.058Z,16.54
2023-05-03T18:00:15.475Z,16.56
2023-05-03T18:02:45.284Z,16.63
2023-05-03T18:05:19.716Z,16.50
2023-05-03T18:07:52.709Z,16.58
2023-05-03T18:10:24.262Z,16.56
2023-05-03T18:13:00.823Z,16.51
2023-05-03T18:15:31.126Z,16.52
2023-05-03T18:18:10.437Z,16.42
2023-05-03T18:20:38.018Z,16.49
2023-05-03T18:23:11.083Z,16.48
2023-05-03T18:25:42.675Z,16.45
2023-05-03T18:28:17.383Z,16.37
2023-05-03T18:30:45.464Z,16.41
2023-05-03T18:33:15.976Z,16.40
2023-05-03T18:35:50.077Z,16.37
2023-05-03T18:38:19.015Z,16.41
2023-05-03T18:40:46.908Z,16.36
2023-05-03T18:43:18.590Z,16.39
2023-05-03T18:45:45.522Z,16.35
2023-05-03T18:48:12.593Z,16.31
2023-05-03T18:50:41.300Z,16.29
2023-05-03T18:53:10.822Z,16.26
2023-05-03T18:55:40.083Z,16.27
2023-05-03T18:58:09.400Z,16.24
2023-05-03T19:00:36.574Z,16.23
2023-05-03T19:03:06.339Z,16.13
2023-05-03T19:05:34.308Z,16.18
2023-05-03T19:08:01.162Z,16.14
2023-05-03T19:10:31.120Z,16.13
2023-05-03T19:12:59.095Z,16.13
2023-05-03T19:15:35.664Z,16.08
2023-05-03T19:18:07.122Z,16.01
2023-05-03T19:20:40.297Z,16.02
2023-05-03T19:23:14.527Z,15.96
2023-05-03T19:25:46.685Z,15.97
2023-05-03T19:28:14.113Z,15.98
2023-05-03T19:30:51.408Z,15.99
2023-05-03T19:33:22.373Z,15.89
2023-05-03T19:35:50.170Z,15.95
2023-05-03T19:38:22.722Z,15.95
2023-05-03T19:41:00.469Z,15.96
2023-05-03T19:43:35.257Z,15.88
2023-05-03T19:46:10.162Z,15.67
2023-05-03T19:48:39.552Z,15.58
2023-05-03T19:51:19.361Z,15.47
2023-05-03T19:54:03.447Z,15.44
2023-05-03T19:56:41.446Z,15.27
2023-05-03T19:59:13.304Z,15.26
2023-05-03T20:01:56.360Z,15.30
2023-05-03T20:04:26.481Z,15.40
2023-05-03T20:06:59.802Z,15.31
2023-05-03T20:09:32.017Z,15.20
2023-05-03T20:12:04.506Z,15.25
2023-05-03T20:14:35.884Z,15.11
2023-05-03T20:17:10.796Z,15.05
2023-05-03T20:19:53.566Z,14.94
2023-05-03T20:22:35.100Z,14.92
2023-05-03T20:25:12.520Z,14.86
2023-05-03T20:27:49.356Z,14.77
2023-05-03T20:30:23.651Z,14.76
2023-05-03T20:33:09.838Z,14.64
2023-05-03T20:35:48.599Z,14.60
2023-05-03T20:38:46.293Z,14.57
2023-05-03T20:41:27.381Z,14.66
2023-05-03T20:44:33.115Z,14.58
2023-05-03T20:47:16.651Z,14.61
2023-05-03T20:50:25.532Z,14.30
2023-05-03T20:53:12.935Z,14.36
2023-05-03T20:56:06.420Z,14.35
2023-05-03T20:59:07.856Z,14.45
2023-05-03T21:02:03.369Z,14.45
2023-05-03T21:04:49.636Z,14.47
2023-05-03T21:11:24.787Z,14.38
2023-05-03T21:14:17.133Z,14.42
2023-05-03T21:16:56.184Z,14.36
2023-05-03T21:19:27.280Z,14.37
2023-05-03T21:21:56.270Z,14.35
2023-05-03T21:24:32.878Z,14.23
2023-05-03T21:27:12.384Z,14.21
2023-05-03T21:29:42.767Z,14.23
2023-05-03T21:32:14.370Z,13.86
2023-05-03T21:34:43.478Z,14.23
2023-05-03T21:37:12.431Z,14.11
2023-05-03T21:40:05.859Z,14.16
2023-05-03T21:42:35.055Z,14.10
2023-05-03T21:45:01.936Z,14.07
2023-05-03T21:47:33.013Z,14.04
2023-05-03T21:50:06.012Z,14.07
2023-05-03T21:52:36.233Z,13.97
2023-05-03T21:55:10.142Z,13.86
2023-05-03T21:57:42.513Z,13.90
2023-05-03T22:00:19.647Z,13.83
2023-05-03T22:02:48.778Z,13.83
2023-05-03T22:05:18.541Z,13.77
2023-05-03T22:07:52.189Z,13.81
2023-05-03T22:10:25.062Z,13.75
2023-05-03T22:12:54.898Z,13.74
2023-05-03T22:15:26.827Z,13.70
2023-05-03T22:18:09.214Z,13.74
2023-05-03T22:20:43.732Z,13.73
2023-05-03T22:23:14.928Z,13.67
2023-05-03T22:25:43.993Z,13.63
2023-05-03T22:28:15.721Z,13.57
2023-05-03T22:30:44.417Z,13.66
2023-05-03T22:33:15.324Z,13.76
2023-05-03T22:35:42.570Z,13.58
2023-05-03T22:38:09.688Z,13.59
2023-05-03T22:40:36.709Z,13.59
2023-05-03T22:43:10.681Z,13.48
2023-05-03T22:45:39.469Z,13.51
2023-05-03T22:48:11.788Z,13.48
2023-05-03T22:50:38.907Z,13.48
2023-05-03T22:53:07.300Z,13.60
2023-05-03T22:55:38.732Z,13.51
2023-05-03T22:58:08.546Z,13.46
2023-05-03T23:00:39.720Z,13.53
2023-05-03T23:03:09.258Z,13.55
2023-05-03T23:05:47.603Z,13.40
2023-05-03T23:08:18.052Z,13.37
2023-05-03T23:10:45.683Z,13.32
2023-05-03T23:13:13.080Z,13.36
2023-05-03T23:15:40.205Z,13.25
2023-05-03T23:18:09.894Z,13.23
2023-05-03T23:20:37.699Z,13.22
2023-05-03T23:23:06.934Z,13.12
2023-05-03T23:25:34.265Z,13.23
2023-05-03T23:28:01.319Z,13.24
2023-05-03T23:30:28.713Z,13.17
2023-05-03T23:32:56.114Z,13.18
2023-05-03T23:35:23.522Z,13.11
2023-05-03T23:37:53.509Z,13.03
2023-05-03T23:40:20.559Z,13.08
2023-05-03T23:42:48.302Z,13.18
2023-05-03T23:45:15.128Z,13.10
2023-05-03T23:47:42.030Z,12.97
2023-05-03T23:50:09.439Z,12.98
2023-05-03T23:52:37.176Z,12.97
2023-05-03T23:55:05.415Z,12.90
2023-05-03T23:57:34.530Z,12.86
